Time;durP1;ratioP1;P1;durP2;ratioP2;P2;SDS_P1;SDS_P2;PMS_P1;PMS_P2;Temp;Humidity;BMP_temperature;BMP_pressure;BME280_temperature;BME280_humidity;BME280_pressure;Samples;Min_cycle;Max_cycle;Signal;HPM_P1;HPM_P2
2020/12/01 00:03:40;;;;;;;19.70;15.97;;;4.60;89.50;;;;;;10579577;28;20195;-80
2020/12/01 00:08:41;;;;;;;21.97;18.13;;;4.70;90.20;;;;;;10561368;28;20215;-80
2020/12/01 00:13:44;;;;;;;22.80;17.50;;;4.60;90.20;;;;;;10585407;28;20266;-79
2020/12/01 00:18:46;;;;;;;20.30;17.47;;;4.60;90.50;;;;;;10582503;28;21024;-79
2020/12/01 00:23:48;;;;;;;23.23;17.70;;;4.60;90.40;;;;;;10585407;27;20576;-80
2020/12/01 00:28:50;;;;;;;23.47;18.10;;;4.50;90.80;;;;;;10579033;28;20306;-82
2020/12/01 00:33:52;;;;;;;26.10;18.50;;;4.40;91.20;;;;;;10578916;28;20275;-81
2020/12/01 00:38:54;;;;;;;22.30;18.20;;;4.40;91.80;;;;;;10577324;28;20223;-81
2020/12/01 00:43:56;;;;;;;21.70;17.07;;;4.30;92.30;;;;;;10584382;28;20223;-81
2020/12/01 00:48:58;;;;;;;24.57;18.27;;;4.20;93.00;;;;;;10577820;28;20222;-80
2020/12/01 00:54:01;;;;;;;24.90;20.40;;;4.20;93.80;;;;;;10576370;28;20334;-82
2020/12/01 00:59:03;;;;;;;22.57;19.87;;;4.00;94.50;;;;;;10578198;28;20247;-81
2020/12/01 01:04:15;;;;;;;26.70;22.03;;;3.90;95.00;;;;;;10556623;28;20202;-80
2020/12/01 01:09:17;;;;;;;26.43;21.97;;;3.70;96.40;;;;;;10574812;28;20206;-81
2020/12/01 01:14:20;;;;;;;26.87;22.90;;;3.40;97.30;;;;;;10577519;28;20210;-81
2020/12/01 01:19:21;;;;;;;26.63;23.80;;;3.10;98.30;;;;;;10580398;28;20691;-81
2020/12/01 01:24:23;;;;;;;31.50;27.27;;;2.90;99.30;;;;;;10586606;28;20191;-80
2020/12/01 01:29:26;;;;;;;33.80;26.57;;;2.80;99.90;;;;;;10575362;28;20198;-79
2020/12/01 01:34:27;;;;;;;37.17;27.50;;;2.70;99.90;;;;;;10594884;28;20210;-79
2020/12/01 01:39:29;;;;;;;32.00;26.60;;;2.70;99.90;;;;;;10587250;28;20219;-80
2020/12/01 01:44:35;;;;;;;33.07;25.90;;;2.70;99.90;;;;;;10584859;28;20202;-80
2020/12/01 01:49:42;;;;;;;36.23;26.30;;;2.90;99.90;;;;;;10589740;28;20242;-80
2020/12/01 01:54:47;;;;;;;28.93;24.03;;;2.90;99.90;;;;;;10592343;28;20583;-79
2020/12/01 01:59:50;;;;;;;32.23;25.03;;;3.10;99.90;;;;;;10590898;28;20203;-79
2020/12/01 02:04:55;;;;;;;29.77;23.13;;;3.20;99.90;;;;;;10577985;28;20294;-79
2020/12/01 02:09:58;;;;;;;26.17;22.10;;;3.40;99.90;;;;;;10581819;28;20199;-79
2020/12/01 02:15:06;;;;;;;31.90;23.70;;;3.40;99.90;;;;;;10589889;28;20214;-81
2020/12/01 02:20:11;;;;;;;29.10;22.90;;;3.50;99.90;;;;;;10590264;28;20184;-79
2020/12/01 02:25:14;;;;;;;33.53;24.23;;;3.50;99.90;;;;;;10591501;28;20218;-80
2020/12/01 02:30:17;;;;;;;31.83;23.97;;;3.60;99.90;;;;;;10581440;28;20282;-80
2020/12/01 02:35:19;;;;;;;31.00;23.47;;;3.70;99.90;;;;;;10564428;28;20288;-81
2020/12/01 02:40:20;;;;;;;28.53;23.07;;;3.70;99.90;;;;;;10587321;28;20227;-79
2020/12/01 02:45:23;;;;;;;31.40;23.33;;;3.70;99.90;;;;;;10589661;28;20219;-80
2020/12/01 02:50:24;;;;;;;29.30;22.77;;;3.80;99.90;;;;;;10589161;28;20194;-81
2020/12/01 02:55:26;;;;;;;31.77;23.33;;;3.80;99.90;;;;;;10576164;28;20223;-81
2020/12/01 03:00:28;;;;;;;30.20;22.00;;;3.80;99.90;;;;;;10585348;28;20677;-81
2020/12/01 03:05:30;;;;;;;30.20;21.83;;;3.80;99.90;;;;;;10584574;28;20217;-78
2020/12/01 03:10:32;;;;;;;26.13;21.70;;;3.80;99.90;;;;;;10587220;28;20182;-81
2020/12/01 03:15:34;;;;;;;27.70;20.60;;;3.70;99.90;;;;;;10585413;28;20732;-79
2020/12/01 03:20:36;;;;;;;29.60;19.87;;;3.70;99.90;;;;;;10585978;28;20697;-78
2020/12/01 03:25:38;;;;;;;22.90;18.90;;;3.70;99.90;;;;;;10576127;28;20589;-79
2020/12/01 03:30:40;;;;;;;26.10;20.03;;;3.80;99.90;;;;;;10543813;28;20183;-80
2020/12/01 03:35:42;;;;;;;24.97;18.20;;;3.80;99.90;;;;;;10544630;28;20224;-80
2020/12/01 03:40:44;;;;;;;26.33;20.37;;;3.80;99.90;;;;;;10544678;28;20196;-81
2020/12/01 03:45:47;;;;;;;27.20;19.50;;;3.90;99.90;;;;;;10545676;28;20200;-80
2020/12/01 03:50:48;;;;;;;30.63;22.20;;;3.90;99.90;;;;;;10525705;28;20218;-79
2020/12/01 03:55:50;;;;;;;27.90;22.23;;;3.90;99.90;;;;;;10544021;28;20216;-81
2020/12/01 04:00:53;;;;;;;24.57;21.10;;;3.80;99.90;;;;;;10541650;28;20679;-78
2020/12/01 04:05:54;;;;;;;24.27;20.50;;;3.70;99.90;;;;;;10541922;28;20215;-79
2020/12/01 04:10:56;;;;;;;30.60;21.07;;;3.70;99.90;;;;;;10539601;28;20266;-78
2020/12/01 04:15:58;;;;;;;26.07;20.40;;;3.80;99.90;;;;;;10539386;28;20218;-78
2020/12/01 04:21:00;;;;;;;26.47;20.87;;;3.80;99.90;;;;;;10541318;28;20271;-78
2020/12/01 04:26:02;;;;;;;25.73;19.57;;;3.90;99.90;;;;;;10552625;28;20435;-79
2020/12/01 04:31:04;;;;;;;25.53;19.37;;;3.90;99.90;;;;;;10582913;28;20183;-79
2020/12/01 04:36:06;;;;;;;25.67;21.30;;;4.00;99.90;;;;;;10584244;28;20239;-79
2020/12/01 04:41:10;;;;;;;21.80;18.77;;;4.00;99.90;;;;;;10582901;28;20312;-80
2020/12/01 04:46:18;;;;;;;22.17;17.10;;;4.00;99.90;;;;;;10583931;28;20633;-78
2020/12/01 04:51:48;;;;;;;24.73;17.57;;;3.90;99.90;;;;;;10584660;28;20187;-79
2020/12/01 04:57:13;;;;;;;25.60;19.80;;;3.90;99.90;;;;;;10572387;28;20942;-80
2020/12/01 05:02:44;;;;;;;22.20;17.00;;;4.00;99.90;;;;;;10580247;28;20199;-80
2020/12/01 05:08:05;;;;;;;23.03;16.83;;;4.00;99.90;;;;;;10582396;28;20210;-81
2020/12/01 05:13:17;;;;;;;20.60;15.77;;;4.10;99.90;;;;;;10582039;28;20191;-79
2020/12/01 05:18:22;;;;;;;22.27;15.90;;;4.20;99.90;;;;;;10582438;28;20211;-79
2020/12/01 05:23:30;;;;;;;20.70;16.00;;;4.20;99.90;;;;;;10581427;28;20187;-78
2020/12/01 05:28:42;;;;;;;25.60;17.57;;;4.30;99.90;;;;;;10548718;28;20718;-80
2020/12/01 05:33:45;;;;;;;21.27;17.63;;;4.40;99.90;;;;;;10571548;28;20797;-80
2020/12/01 05:38:57;;;;;;;22.90;18.40;;;4.40;99.90;;;;;;10587105;28;20208;-80
2020/12/01 05:44:02;;;;;;;22.93;16.60;;;4.50;99.90;;;;;;10584054;28;20231;-79
2020/12/01 05:49:22;;;;;;;21.83;16.73;;;4.50;99.90;;;;;;10584801;28;20290;-79
2020/12/01 05:54:33;;;;;;;25.03;17.87;;;4.60;99.90;;;;;;10584987;28;20210;-79
2020/12/01 05:59:35;;;;;;;23.07;18.00;;;4.60;99.90;;;;;;10587948;28;20199;-79
2020/12/01 06:04:38;;;;;;;25.70;21.00;;;4.60;99.90;;;;;;10576669;28;20207;-79
2020/12/01 06:10:04;;;;;;;26.50;20.03;;;4.50;99.90;;;;;;10587210;28;20180;-79
2020/12/01 06:15:12;;;;;;;27.10;19.90;;;4.50;99.90;;;;;;10583564;28;20202;-79
2020/12/01 06:20:24;;;;;;;26.33;19.80;;;4.50;99.90;;;;;;10591976;28;20640;-78
2020/12/01 06:25:54;;;;;;;24.10;18.80;;;4.50;99.90;;;;;;10586929;28;20294;-78
2020/12/01 06:31:25;;;;;;;29.10;22.47;;;4.50;99.90;;;;;;10594749;28;20280;-82
2020/12/01 06:37:18;;;;;;;23.17;19.57;;;4.40;99.90;;;;;;10591203;27;20222;-78
2020/12/01 06:42:26;;;;;;;29.73;20.67;;;4.40;99.90;;;;;;10587404;28;20195;-79
2020/12/01 06:47:31;;;;;;;26.57;19.60;;;4.40;99.90;;;;;;10588071;28;20238;-81
2020/12/01 06:52:33;;;;;;;24.03;17.97;;;4.40;99.90;;;;;;10594922;28;20723;-81
2020/12/01 06:57:37;;;;;;;21.47;18.50;;;4.40;99.90;;;;;;10592203;27;20313;-79
2020/12/01 07:02:40;;;;;;;24.50;19.57;;;4.40;99.90;;;;;;10573834;28;20719;-81
2020/12/01 07:07:44;;;;;;;25.30;22.47;;;4.30;99.90;;;;;;10594140;28;20215;-81
2020/12/01 07:12:54;;;;;;;28.10;21.07;;;4.30;99.90;;;;;;10600468;28;20282;-80
2020/12/01 07:18:05;;;;;;;27.33;19.33;;;4.20;99.90;;;;;;10586272;28;20199;-79
2020/12/01 07:23:21;;;;;;;27.30;21.73;;;4.30;99.90;;;;;;10585473;28;20218;-79
2020/12/01 07:28:31;;;;;;;25.20;19.60;;;4.30;99.90;;;;;;10570264;28;20740;-80
2020/12/01 07:33:35;;;;;;;24.30;17.30;;;4.30;99.90;;;;;;10587015;28;20206;-79
2020/12/01 07:38:40;;;;;;;21.00;17.30;;;4.30;99.90;;;;;;10582154;28;20222;-81
2020/12/01 07:43:43;;;;;;;23.23;18.20;;;4.40;99.90;;;;;;10586827;27;20294;-80
2020/12/01 07:48:44;;;;;;;19.20;16.97;;;4.40;99.90;;;;;;10584068;27;20235;-81
2020/12/01 07:53:47;;;;;;;22.30;16.70;;;4.50;99.90;;;;;;10566720;27;20282;-79
2020/12/01 07:59:10;;;;;;;23.50;16.53;;;4.60;99.90;;;;;;10596607;27;20308;-78
2020/12/01 08:04:15;;;;;;;30.07;20.93;;;4.60;99.90;;;;;;10605626;28;20199;-80
2020/12/01 08:09:21;;;;;;;38.07;26.10;;;4.70;99.90;;;;;;10589254;28;20199;-80
2020/12/01 08:14:24;;;;;;;27.30;20.60;;;4.80;99.90;;;;;;10586701;28;20195;-81
2020/12/01 08:19:28;;;;;;;30.40;21.50;;;4.80;99.90;;;;;;10594437;28;20646;-80
2020/12/01 08:24:32;;;;;;;29.20;20.20;;;4.90;99.90;;;;;;10589097;28;20651;-80
2020/12/01 08:29:37;;;;;;;20.40;15.97;;;5.00;99.90;;;;;;10593012;28;20215;-81
2020/12/01 08:34:46;;;;;;;19.53;15.00;;;5.10;99.90;;;;;;10583100;28;20595;-82
2020/12/01 08:40:06;;;;;;;19.60;14.67;;;5.10;99.90;;;;;;10569062;28;20211;-81
2020/12/01 08:45:33;;;;;;;15.73;13.70;;;5.00;99.90;;;;;;10563468;27;20271;-80
2020/12/01 08:50:38;;;;;;;16.20;13.40;;;5.00;99.90;;;;;;10581882;28;20569;-81
2020/12/01 08:55:49;;;;;;;16.47;14.03;;;4.90;99.90;;;;;;10590445;28;20652;-81
2020/12/01 09:01:01;;;;;;;15.97;12.40;;;4.90;99.90;;;;;;10573407;27;20202;-82
2020/12/01 09:06:04;;;;;;;11.67;8.93;;;4.90;99.90;;;;;;10573623;28;20306;-82
2020/12/01 09:11:24;;;;;;;16.50;13.27;;;4.80;99.90;;;;;;10592150;28;20191;-82
2020/12/01 09:16:37;;;;;;;17.27;13.80;;;4.80;99.90;;;;;;10591149;28;20225;-81
2020/12/01 09:21:53;;;;;;;14.83;12.93;;;4.80;99.90;;;;;;10578354;28;20199;-82
2020/12/01 09:27:00;;;;;;;13.40;12.00;;;4.70;99.90;;;;;;10567717;28;20301;-80
2020/12/01 09:32:05;;;;;;;16.27;14.50;;;4.70;99.90;;;;;;10566427;28;20580;-82
2020/12/01 09:37:07;;;;;;;17.30;14.30;;;4.80;99.90;;;;;;10572413;28;20227;-82
2020/12/01 09:42:11;;;;;;;16.53;14.23;;;4.80;99.90;;;;;;10585438;28;20199;-80
2020/12/01 09:47:18;;;;;;;15.60;12.73;;;4.80;99.90;;;;;;10578821;27;20239;-83
2020/12/01 09:52:25;;;;;;;14.43;12.43;;;4.80;99.90;;;;;;10589134;27;20200;-83
2020/12/01 09:57:39;;;;;;;16.63;12.50;;;4.80;99.90;;;;;;10589524;28;20238;-83
2020/12/01 10:03:15;;;;;;;13.07;11.07;;;4.90;99.90;;;;;;10604483;28;20195;-81
2020/12/01 10:08:21;;;;;;;15.90;12.40;;;4.90;99.90;;;;;;10559963;28;20885;-82
2020/12/01 10:13:40;;;;;;;12.43;10.87;;;4.90;99.90;;;;;;10573671;28;20331;-84
2020/12/01 10:35:11;;;;;;;13.27;11.57;;;5.00;99.90;;;;;;10571004;28;20215;-82
2020/12/01 10:40:12;;;;;;;12.63;11.17;;;5.00;99.90;;;;;;10588648;28;20215;-82
2020/12/01 10:45:14;;;;;;;14.67;12.50;;;5.10;99.90;;;;;;10578776;28;20298;-81
2020/12/01 10:50:23;;;;;;;13.17;11.87;;;5.10;99.90;;;;;;10566598;28;20558;-83
2020/12/01 10:55:26;;;;;;;19.67;13.13;;;5.10;99.90;;;;;;10560976;28;20219;-79
2020/12/01 11:00:28;;;;;;;17.30;14.93;;;5.10;99.90;;;;;;10577825;28;20256;-81
2020/12/01 11:05:32;;;;;;;22.27;17.20;;;5.20;99.90;;;;;;10584400;28;20238;-83
2020/12/01 11:10:33;;;;;;;18.37;14.50;;;5.20;99.90;;;;;;10588028;28;20168;-82
2020/12/01 11:15:35;;;;;;;17.40;13.50;;;5.20;99.90;;;;;;10581937;27;20249;-80
2020/12/01 11:20:38;;;;;;;10.20;8.93;;;5.20;99.90;;;;;;10583996;28;20238;-83
2020/12/01 11:25:39;;;;;;;10.20;9.20;;;5.20;99.90;;;;;;10565621;28;20219;-81
2020/12/01 11:30:41;;;;;;;10.63;9.57;;;5.20;99.90;;;;;;10590984;28;20655;-82
2020/12/01 11:35:43;;;;;;;10.20;9.10;;;5.20;99.90;;;;;;10588562;28;20267;-83
2020/12/01 11:40:45;;;;;;;9.43;8.53;;;5.30;99.90;;;;;;10583505;28;20721;-82
2020/12/01 11:45:47;;;;;;;10.50;9.27;;;5.30;99.90;;;;;;10581741;28;20295;-81
2020/12/01 11:50:49;;;;;;;10.23;9.10;;;5.30;99.90;;;;;;10585106;28;20241;-82
2020/12/01 11:55:51;;;;;;;9.43;8.47;;;5.30;99.90;;;;;;10578995;28;20593;-81
2020/12/01 12:00:53;;;;;;;8.50;7.70;;;5.40;99.90;;;;;;10584108;28;20310;-81
2020/12/01 12:05:55;;;;;;;9.23;8.30;;;5.40;99.90;;;;;;10578501;28;20260;-78
2020/12/01 12:10:57;;;;;;;9.30;8.40;;;5.30;99.90;;;;;;10553736;27;20195;-82
2020/12/01 12:15:58;;;;;;;8.83;8.03;;;5.30;99.90;;;;;;10557371;28;20222;-83
2020/12/01 12:21:01;;;;;;;9.60;8.60;;;5.30;99.90;;;;;;10577616;28;20234;-83
2020/12/01 12:26:03;;;;;;;9.67;8.77;;;5.20;99.90;;;;;;10578785;27;20231;-82
2020/12/01 12:31:06;;;;;;;10.60;9.57;;;5.30;99.90;;;;;;10561224;28;20291;-81
2020/12/01 12:36:10;;;;;;;10.53;9.50;;;5.30;99.90;;;;;;10543434;28;20227;-79
2020/12/01 12:41:12;;;;;;;10.93;9.73;;;5.20;99.90;;;;;;10551357;28;20204;-80
2020/12/01 12:46:13;;;;;;;11.70;9.87;;;5.20;99.90;;;;;;10562960;28;20230;-82
2020/12/01 12:51:16;;;;;;;12.87;11.67;;;5.20;99.90;;;;;;10567872;28;20257;-80
2020/12/01 12:56:18;;;;;;;12.07;10.97;;;5.20;99.90;;;;;;10577384;28;20680;-81
2020/12/01 13:01:20;;;;;;;12.97;11.53;;;5.20;99.90;;;;;;10565464;27;20438;-79
2020/12/01 13:06:23;;;;;;;11.80;10.53;;;5.20;99.90;;;;;;10577020;28;20288;-81
2020/12/01 13:11:24;;;;;;;12.83;11.47;;;5.20;99.90;;;;;;10573873;27;20289;-80
2020/12/01 13:16:26;;;;;;;12.17;11.00;;;5.30;99.90;;;;;;10578353;27;20215;-81
2020/12/01 13:21:29;;;;;;;12.00;10.80;;;5.30;99.90;;;;;;10575579;28;20290;-80
2020/12/01 13:26:30;;;;;;;12.83;11.50;;;5.40;99.90;;;;;;10586319;28;20219;-79
2020/12/01 13:31:32;;;;;;;12.23;9.70;;;5.40;99.90;;;;;;10564601;28;20202;-80
2020/12/01 13:36:35;;;;;;;9.00;8.20;;;5.40;99.90;;;;;;10578157;28;20276;-79
2020/12/01 13:41:37;;;;;;;11.13;9.90;;;5.50;99.90;;;;;;10571281;28;20206;-79
2020/12/01 13:46:39;;;;;;;13.60;9.90;;;5.50;99.90;;;;;;10575143;28;20235;-80
2020/12/01 13:51:41;;;;;;;12.90;11.47;;;5.60;99.90;;;;;;10591252;28;20202;-79
2020/12/01 13:56:44;;;;;;;13.20;11.80;;;5.60;99.90;;;;;;10567727;28;20314;-81
2020/12/01 14:01:46;;;;;;;14.47;11.50;;;5.60;99.90;;;;;;10564679;28;20196;-82
2020/12/01 14:06:52;;;;;;;12.30;11.10;;;5.60;99.90;;;;;;10570286;28;20222;-81
2020/12/01 14:11:55;;;;;;;19.50;17.43;;;5.60;99.90;;;;;;10559884;28;20195;-80
2020/12/01 14:16:56;;;;;;;13.27;11.50;;;5.70;99.90;;;;;;10584273;28;20234;-80
2020/12/01 14:22:00;;;;;;;14.20;12.70;;;5.70;99.90;;;;;;10582438;28;20730;-81
2020/12/01 14:27:02;;;;;;;12.90;11.60;;;5.70;99.90;;;;;;10582899;28;20250;-81
2020/12/01 14:32:04;;;;;;;12.60;10.03;;;5.70;99.90;;;;;;10584451;28;20200;-82
2020/12/01 14:37:14;;;;;;;13.60;12.20;;;5.70;99.90;;;;;;10566710;28;20331;-82
2020/12/01 14:42:19;;;;;;;13.93;12.53;;;5.60;99.90;;;;;;10588219;28;20627;-80
2020/12/01 14:47:57;;;;;;;13.13;11.83;;;5.70;99.90;;;;;;10585827;28;20244;-80
2020/12/01 14:53:06;;;;;;;12.33;11.13;;;5.70;99.90;;;;;;10578080;27;20222;-81
2020/12/01 14:58:38;;;;;;;12.13;10.73;;;5.70;99.90;;;;;;10587640;28;20296;-79
2020/12/01 15:04:11;;;;;;;11.23;10.10;;;5.60;99.90;;;;;;10568201;28;20199;-80
2020/12/01 15:09:31;;;;;;;10.83;9.83;;;5.50;99.90;;;;;;10575053;28;20237;-80
2020/12/01 15:14:33;;;;;;;13.07;11.77;;;5.50;99.90;;;;;;10580458;28;20206;-79
2020/12/01 15:19:36;;;;;;;12.43;11.13;;;5.50;99.90;;;;;;10597729;28;20302;-79
2020/12/01 15:24:40;;;;;;;10.80;9.80;;;5.50;99.90;;;;;;10564599;28;20633;-81
2020/12/01 15:29:44;;;;;;;11.37;10.27;;;5.50;99.90;;;;;;10569154;28;20192;-79
2020/12/01 15:34:48;;;;;;;12.13;10.80;;;5.50;99.90;;;;;;10594529;28;20227;-80
2020/12/01 15:39:52;;;;;;;13.17;11.80;;;5.50;99.90;;;;;;10587928;28;20233;-79
2020/12/01 15:44:56;;;;;;;13.97;12.53;;;5.50;99.90;;;;;;10602030;28;20257;-79
2020/12/01 15:49:58;;;;;;;12.40;11.10;;;5.60;99.90;;;;;;10585420;28;20191;-81
2020/12/01 15:55:31;;;;;;;18.53;14.87;;;5.60;99.90;;;;;;10598346;28;20654;-81
2020/12/01 16:01:21;;;;;;;15.53;13.90;;;5.70;99.90;;;;;;10562939;28;20230;-81
2020/12/01 16:06:39;;;;;;;15.20;13.60;;;5.60;99.90;;;;;;10476903;28;20688;-81
2020/12/01 16:12:01;;;;;;;15.57;13.77;;;5.60;99.90;;;;;;10585642;27;20191;-82
2020/12/01 16:17:12;;;;;;;18.57;15.13;;;5.60;99.90;;;;;;10571915;27;20808;-80
2020/12/01 16:22:15;;;;;;;18.67;14.63;;;5.70;99.90;;;;;;10581444;28;20290;-83
2020/12/01 16:27:27;;;;;;;18.27;15.73;;;5.60;99.90;;;;;;10596174;27;20242;-81
2020/12/01 16:32:32;;;;;;;18.50;14.63;;;5.60;99.90;;;;;;10585163;28;20256;-80
2020/12/01 16:37:46;;;;;;;19.27;17.20;;;5.60;99.90;;;;;;10574812;28;20219;-82
2020/12/01 16:43:12;;;;;;;20.00;15.87;;;5.70;99.90;;;;;;10590390;28;20204;-81
2020/12/01 16:48:28;;;;;;;21.00;16.57;;;5.70;99.90;;;;;;10589894;28;20218;-81
2020/12/01 16:54:06;;;;;;;17.00;13.33;;;5.70;99.90;;;;;;10595098;28;20190;-80
2020/12/01 16:59:30;;;;;;;15.67;13.10;;;5.70;99.90;;;;;;10593479;28;20222;-81
2020/12/01 17:04:58;;;;;;;15.97;13.67;;;5.70;99.90;;;;;;10592538;28;20207;-80
2020/12/01 17:10:05;;;;;;;15.63;13.90;;;5.70;99.90;;;;;;10592728;28;20201;-81
2020/12/01 17:15:23;;;;;;;18.23;15.10;;;5.70;99.90;;;;;;10588258;28;20244;-82
2020/12/01 17:20:25;;;;;;;15.30;13.67;;;5.70;99.90;;;;;;10555240;28;20944;-81
2020/12/01 17:25:30;;;;;;;15.33;13.37;;;5.60;99.90;;;;;;10587538;28;20211;-82
2020/12/01 17:30:54;;;;;;;14.33;12.77;;;5.60;99.90;;;;;;10590455;28;20195;-81
2020/12/01 17:36:09;;;;;;;15.90;13.57;;;5.70;99.90;;;;;;10579480;28;20272;-83
2020/12/01 17:41:20;;;;;;;16.27;13.27;;;5.60;99.90;;;;;;10586915;27;20257;-81
2020/12/01 17:46:29;;;;;;;18.30;15.40;;;5.60;99.90;;;;;;10561149;28;20346;-81
2020/12/01 17:51:37;;;;;;;16.47;14.07;;;5.70;99.90;;;;;;10566946;28;20199;-80
2020/12/01 17:56:40;;;;;;;20.03;14.73;;;5.60;99.90;;;;;;10547243;28;20216;-80
2020/12/01 18:01:45;;;;;;;16.43;14.73;;;5.60;99.90;;;;;;10577439;28;20223;-80
2020/12/01 18:06:51;;;;;;;15.33;13.77;;;5.60;99.90;;;;;;10562586;28;20250;-79
2020/12/01 18:11:57;;;;;;;16.67;14.50;;;5.60;99.90;;;;;;10563212;28;20196;-79
2020/12/01 18:17:16;;;;;;;17.00;13.80;;;5.60;99.90;;;;;;10574705;27;20567;-79
2020/12/01 18:22:24;;;;;;;20.13;15.97;;;5.60;99.90;;;;;;10586568;28;20904;-78
2020/12/01 18:27:31;;;;;;;16.03;14.33;;;5.60;99.90;;;;;;10579273;28;20972;-79
2020/12/01 18:32:41;;;;;;;17.50;14.90;;;5.60;99.90;;;;;;10568172;28;20986;-79
2020/12/01 18:37:45;;;;;;;17.40;15.20;;;5.60;99.90;;;;;;10558794;27;20223;-80
2020/12/01 18:42:53;;;;;;;16.93;14.67;;;5.60;99.90;;;;;;10579795;27;20252;-79
2020/12/01 18:47:56;;;;;;;21.40;15.80;;;5.60;99.90;;;;;;10586682;28;20215;-83
2020/12/01 18:53:08;;;;;;;23.43;17.37;;;5.60;99.90;;;;;;10584704;28;20225;-80
2020/12/01 18:58:12;;;;;;;26.80;17.50;;;5.60;99.90;;;;;;10587779;28;20238;-80
2020/12/01 19:03:18;;;;;;;18.93;14.77;;;5.60;99.90;;;;;;10574181;28;20203;-80
2020/12/01 19:08:20;;;;;;;16.60;13.20;;;5.60;99.90;;;;;;10581230;27;20215;-80
2020/12/01 19:13:24;;;;;;;18.60;15.27;;;5.60;99.90;;;;;;10582643;27;20238;-81
2020/12/01 19:18:26;;;;;;;17.87;14.40;;;5.50;99.90;;;;;;10560281;28;20219;-81
2020/12/01 19:23:28;;;;;;;21.10;15.50;;;5.50;99.90;;;;;;10574792;28;20623;-80
2020/12/01 19:28:30;;;;;;;17.20;14.90;;;5.50;99.90;;;;;;10576046;28;20683;-81
2020/12/01 19:33:33;;;;;;;17.00;14.60;;;5.40;99.90;;;;;;10571918;28;20218;-81
2020/12/01 19:38:34;;;;;;;17.10;13.23;;;5.40;99.90;;;;;;10569190;28;20256;-81
2020/12/01 19:43:36;;;;;;;18.37;13.23;;;5.50;99.90;;;;;;10591179;28;20205;-80
2020/12/01 19:48:39;;;;;;;19.87;14.57;;;5.50;99.90;;;;;;10582919;27;20219;-80
2020/12/01 19:53:40;;;;;;;21.50;14.50;;;5.50;99.90;;;;;;10573743;28;20207;-80
2020/12/01 19:58:42;;;;;;;22.60;16.17;;;5.60;99.90;;;;;;10583550;27;20250;-81
2020/12/01 20:03:44;;;;;;;20.20;13.50;;;5.50;99.90;;;;;;10576141;27;20195;-81
2020/12/01 20:08:47;;;;;;;20.10;15.60;;;5.50;99.90;;;;;;10561686;28;20219;-79
2020/12/01 20:13:49;;;;;;;20.40;14.10;;;5.50;99.90;;;;;;10575172;28;20278;-80
2020/12/01 20:18:52;;;;;;;18.70;13.47;;;5.50;99.90;;;;;;10573515;28;20214;-80
2020/12/01 20:23:54;;;;;;;20.83;15.63;;;5.50;99.90;;;;;;10579290;28;20199;-82
2020/12/01 20:28:56;;;;;;;18.63;14.50;;;5.60;99.90;;;;;;10574890;27;21024;-81
2020/12/01 20:33:59;;;;;;;23.93;14.67;;;5.60;99.90;;;;;;10589821;28;20206;-81
2020/12/01 20:39:38;;;;;;;22.67;15.93;;;5.60;99.90;;;;;;10582173;28;20258;-80
2020/12/01 20:44:44;;;;;;;19.80;12.90;;;5.50;99.90;;;;;;10581010;28;20202;-81
2020/12/01 20:49:47;;;;;;;20.80;14.73;;;5.50;99.90;;;;;;10583450;28;20256;-82
2020/12/01 20:54:49;;;;;;;23.30;15.47;;;5.40;99.90;;;;;;10590133;27;20215;-82
2020/12/01 20:59:50;;;;;;;22.97;15.30;;;5.40;99.90;;;;;;10589082;28;20784;-81
2020/12/01 21:04:53;;;;;;;22.50;14.80;;;5.40;99.90;;;;;;10576140;28;20765;-79
2020/12/01 21:09:55;;;;;;;19.07;15.03;;;5.30;99.90;;;;;;10567218;28;20209;-81
2020/12/01 21:14:58;;;;;;;20.30;14.40;;;5.30;99.90;;;;;;10580335;28;20687;-81
2020/12/01 21:20:01;;;;;;;14.03;12.53;;;5.30;99.90;;;;;;10585381;27;20268;-81
2020/12/01 21:25:06;;;;;;;15.50;13.60;;;5.30;99.90;;;;;;10586558;28;20246;-81
2020/12/01 21:30:18;;;;;;;12.93;11.57;;;5.30;99.90;;;;;;10588041;28;20193;-80
2020/12/01 21:35:22;;;;;;;13.53;11.33;;;5.30;99.90;;;;;;10599754;27;20769;-83
2020/12/01 21:40:25;;;;;;;15.03;13.13;;;5.40;99.90;;;;;;10565525;28;20238;-80
2020/12/01 21:45:31;;;;;;;14.27;12.57;;;5.40;99.90;;;;;;10576373;28;20217;-80
2020/12/01 21:50:35;;;;;;;14.10;12.17;;;5.40;99.90;;;;;;10581715;28;20206;-82
2020/12/01 21:55:57;;;;;;;14.90;13.00;;;5.50;99.90;;;;;;10570837;28;20242;-80
2020/12/01 22:01:10;;;;;;;14.40;12.90;;;5.50;99.90;;;;;;10588635;28;20223;-81
2020/12/01 22:06:51;;;;;;;16.27;14.00;;;5.50;99.90;;;;;;10589311;28;20251;-80
2020/12/01 22:12:00;;;;;;;15.77;13.90;;;5.50;99.90;;;;;;10590702;28;20207;-80
2020/12/01 22:17:20;;;;;;;16.40;14.30;;;5.60;99.90;;;;;;10582781;28;20302;-80
2020/12/01 22:22:51;;;;;;;16.23;13.50;;;5.60;99.90;;;;;;10585262;28;20191;-81
2020/12/01 22:28:20;;;;;;;16.43;14.63;;;5.60;99.90;;;;;;10578153;28;20231;-80
2020/12/01 22:34:02;;;;;;;13.77;12.37;;;5.60;99.90;;;;;;10578622;28;20207;-80
2020/12/01 22:39:10;;;;;;;13.20;11.60;;;5.50;99.90;;;;;;10563577;28;20242;-80
2020/12/01 22:44:37;;;;;;;13.33;12.03;;;5.50;99.90;;;;;;10575217;28;20252;-81
2020/12/01 22:50:07;;;;;;;13.50;12.10;;;5.50;99.90;;;;;;10592235;28;20230;-81
2020/12/01 22:55:26;;;;;;;13.97;12.20;;;5.50;99.90;;;;;;10586257;28;20227;-80
2020/12/01 23:00:36;;;;;;;15.00;13.37;;;5.50;99.90;;;;;;10608713;28;20253;-83
2020/12/01 23:05:38;;;;;;;14.70;13.03;;;5.50;99.90;;;;;;10595368;28;20219;-81
2020/12/01 23:10:48;;;;;;;14.83;13.13;;;5.50;99.90;;;;;;10591173;28;20540;-80
2020/12/01 23:15:50;;;;;;;17.30;15.17;;;5.50;99.90;;;;;;10573302;28;20223;-80
2020/12/01 23:20:52;;;;;;;17.13;14.20;;;5.50;99.90;;;;;;10592958;27;20219;-81
2020/12/01 23:26:03;;;;;;;15.93;14.23;;;5.50;99.90;;;;;;10553866;28;20230;-80
2020/12/01 23:31:05;;;;;;;16.77;13.63;;;5.50;99.90;;;;;;10574433;27;20199;-80
2020/12/01 23:36:07;;;;;;;16.57;13.50;;;5.40;99.90;;;;;;10592358;28;20249;-81
2020/12/01 23:41:20;;;;;;;16.00;13.37;;;5.40;99.90;;;;;;10579399;28;20241;-80
2020/12/01 23:46:28;;;;;;;16.17;13.30;;;5.40;99.90;;;;;;10544732;28;20229;-81
2020/12/01 23:51:33;;;;;;;17.37;14.33;;;5.40;99.90;;;;;;10591531;28;20689;-82
2020/12/01 23:56:37;;;;;;;15.03;13.27;;;5.40;99.90;;;;;;10573972;28;20215;-81
